Latest Weather Observations for Broome Port

IDW60801

Issued at 9:43 pm WST Wednesday 8 July 2020 (issued every 10 minutes, with the page automatically refreshed every 10 minutes)

About weather observations | Map of weather stations | Latest weather observations for WA | Other Formats
Station Details ID: 003102 Name: BROOME NTC AWS Lat: -18.00 Lon: 122.22 Height: 0.0 m
Data from the previous 72 hours. | See also: Recent months for locations in Western Australia
Date/Time
WST
Temp
°C
App
Temp
°C
Dew
Point
°C
Rel
Hum
%
Delta-T
°C
Wind Press
QNH
hPa
Press
MSL
hPa
Rain since
9am
mm
Dir  Spd
km/h
Gust
km/h
Spd
kts
Gust
kts
08/09:30pm 22.9 - - - - W 11 13 6 7 1013.7 1013.7 -
08/09:00pm 22.5 - - - - W 11 17 6 9 1013.6 1013.6 -
08/08:30pm 23.4 - - - - WSW 13 17 7 9 1013.6 1013.6 -
08/08:00pm 23.3 - - - - SSW 9 13 5 7 1013.6 1013.6 -
08/07:30pm 23.4 - - - - S 7 11 4 6 1013.4 1013.4 -
08/07:00pm 23.6 - - - - S 15 20 8 11 1013.0 1013.0 -
08/06:30pm 22.9 - - - - SSW 11 15 6 8 1012.5 1012.5 -
08/06:00pm 23.4 - - - - S 17 22 9 12 1011.9 1011.9 -
08/05:30pm 24.8 - - - - SSE 11 13 6 7 1011.7 1011.7 -
08/05:00pm 25.6 - - - - SE 13 15 7 8 1011.3 1011.3 -
08/04:30pm 25.9 - - - - SSE 11 13 6 7 1011.3 1011.3 -
08/04:00pm 27.7 - - - - SE 7 9 4 5 1011.3 1011.3 -
08/03:30pm 26.7 - - - - SE 4 6 2 3 1011.0 1011.0 -
08/03:00pm 25.2 - - - - CALM 0 2 0 1 1011.2 1011.2 -
08/02:30pm 26.9 - - - - SE 7 9 4 5 1011.3 1011.3 -
08/02:00pm 26.3 - - - - E 13 15 7 8 1011.3 1011.3 -
08/01:30pm 26.3 - - - - E 9 11 5 6 1012.3 1012.3 -
08/01:00pm 25.9 - - - - E 11 13 6 7 1012.6 1012.6 -
08/12:30pm 25.6 - - - - E 13 17 7 9 1013.2 1013.2 -
08/12:00pm 25.3 - - - - E 19 22 10 12 1013.6 1013.6 -
08/11:30am 24.9 - - - - E 19 22 10 12 1014.1 1014.1 -
08/11:00am 24.0 - - - - E 17 22 9 12 1014.6 1014.6 -
08/10:30am 22.5 - - - - E 19 24 10 13 1014.8 1014.8 -
08/10:00am 21.5 - - - - E 22 26 12 14 1015.3 1015.3 -
08/09:30am 20.0 - - - - ENE 22 26 12 14 1015.4 1015.4 -
08/09:00am 19.6 - - - - ENE 20 26 11 14 1015.5 1015.5 -
08/08:30am 19.0 - - - - E 19 22 10 12 1015.8 1015.8 -
08/08:00am 18.9 - - - - E 20 26 11 14 1015.5 1015.5 -
08/07:30am 18.8 - - - - E 19 24 10 13 1015.5 1015.5 -
08/07:00am 18.9 - - - - E 15 19 8 10 1015.1 1015.1 -
08/06:30am 18.7 - - - - E 19 20 10 11 1014.7 1014.7 -
08/06:00am 19.0 - - - - E 19 24 10 13 1014.5 1014.5 -
08/05:30am 19.3 - - - - ESE 20 24 11 13 1014.4 1014.4 -
08/05:00am 19.4 - - - - ESE 17 20 9 11 1014.1 1014.1 -
08/04:30am 19.6 - - - - ESE 17 22 9 12 1014.2 1014.2 -
08/04:00am 19.6 - - - - ESE 19 22 10 12 1014.1 1014.1 -
08/03:30am 20.0 - - - - ESE 17 19 9 10 1014.2 1014.2 -
08/03:00am 20.2 - - - - ESE 15 19 8 10 1014.2 1014.2 -
08/02:30am 20.2 - - - - ESE 19 20 10 11 1014.3 1014.3 -
08/02:00am 20.6 - - - - ESE 19 22 10 12 1014.7 1014.7 -
08/01:30am 20.6 - - - - ESE 19 20 10 11 1014.7 1014.7 -
08/01:00am 20.9 - - - - ESE 20 22 11 12 1015.0 1015.0 -
08/12:30am 21.1 - - - - ESE 20 24 11 13 1015.2 1015.2 -
08/12:00am 21.6 - - - - ESE 22 26 12 14 1015.3 1015.3 -
 
Date/Time
WST
Temp
°C
App
Temp
°C
Dew
Point
°C
Rel
Hum
%
Delta-T
°C
Wind Press
QNH
hPa
Press
MSL
hPa
Rain since
9am
mm
Dir  Spd
km/h
Gust
km/h
Spd
kts
Gust
kts
07/11:30pm 22.3 - - - - ESE 13 17 7 9 1015.3 1015.3 -
07/11:00pm 21.8 - - - - SE 7 11 4 6 1015.4 1015.4 -
07/10:30pm 22.2 - - - - SE 13 17 7 9 1015.4 1015.4 -
07/10:00pm 22.6 - - - - SSE 13 17 7 9 1015.5 1015.5 -
07/09:30pm 22.0 - - - - S 11 17 6 9 1015.4 1015.4 -
07/09:00pm 22.3 - - - - S 15 22 8 12 1015.5 1015.5 -
07/08:30pm 22.5 - - - - S 22 28 12 15 1015.2 1015.2 -
07/08:00pm 22.7 - - - - S 20 26 11 14 1015.0 1015.0 -
07/07:30pm 23.3 - - - - S 13 24 7 13 1014.7 1014.7 -
07/07:00pm 23.5 - - - - S 11 17 6 9 1014.6 1014.6 -
07/06:30pm 23.9 - - - - S 13 17 7 9 1014.2 1014.2 -
07/06:00pm 24.3 - - - - S 15 15 8 8 1014.2 1014.2 -
07/05:30pm 23.8 - - - - S 13 15 7 8 1013.7 1013.7 -
07/05:00pm 26.7 - - - - S 11 15 6 8 1013.4 1013.4 -
07/04:30pm 28.9 - - - - SSE 13 13 7 7 1013.2 1013.2 -
07/04:00pm 29.1 - - - - SSE 13 15 7 8 1013.1 1013.1 -
07/03:30pm 27.9 - - - - SSE 15 17 8 9 1013.1 1013.1 -
07/03:00pm 28.6 - - - - SSE 13 15 7 8 1013.3 1013.3 -
07/02:30pm 27.9 - - - - SSE 9 15 5 8 1013.4 1013.4 -
07/02:00pm 26.4 - - - - SSE 15 17 8 9 1013.5 1013.5 -
07/01:30pm 26.6 - - - - SSE 13 15 7 8 1013.9 1013.9 -
07/01:00pm 27.5 - - - - ESE 15 17 8 9 1014.3 1014.3 -
07/12:30pm 26.8 - - - - ESE 13 15 7 8 1014.7 1014.7 -
07/12:00pm 26.3 - - - - E 17 19 9 10 1015.1 1015.1 -
07/11:30am 25.8 - - - - E 19 20 10 11 1015.5 1015.5 -
07/11:00am 24.8 - - - - E 24 30 13 16 1016.0 1016.0 -
07/10:30am 24.0 - - - - E 30 33 16 18 1016.3 1016.3 -
07/10:00am 23.5 - - - - E 32 35 17 19 1016.5 1016.5 -
07/09:30am 21.4 - - - - ENE 26 32 14 17 1016.8 1016.8 -
07/09:00am 20.4 - - - - ENE 24 32 13 17 1016.9 1016.9 -
07/08:30am 19.1 - - - - E 26 33 14 18 1016.9 1016.9 -
07/08:00am 18.6 - - - - E 24 30 13 16 1016.8 1016.8 -
07/07:30am 18.6 - - - - E 22 26 12 14 1016.8 1016.8 -
07/07:00am 18.4 - - - - E 28 33 15 18 1016.5 1016.5 -
07/06:30am 18.6 - - - - E 28 33 15 18 1016.2 1016.2 -
07/06:00am 18.8 - - - - E 26 30 14 16 1016.1 1016.1 -
07/05:30am 18.7 - - - - E 26 32 14 17 1016.0 1016.0 -
07/05:00am 19.1 - - - - ESE 24 30 13 16 1016.0 1016.0 -
07/04:30am 19.8 - - - - ESE 20 26 11 14 1015.8 1015.8 -
07/04:00am 20.1 - - - - E 22 30 12 16 1015.8 1015.8 -
07/03:30am 20.7 - - - - ESE 28 32 15 17 1015.9 1015.9 -
07/03:00am 21.0 - - - - ESE 28 35 15 19 1016.0 1016.0 -
07/02:30am 21.0 - - - - ESE 26 32 14 17 1016.0 1016.0 -
07/02:00am 21.1 - - - - ESE 26 32 14 17 1015.9 1015.9 -
07/01:30am 21.2 - - - - ESE 26 32 14 17 1016.1 1016.1 -
07/01:00am 21.4 - - - - ESE 28 33 15 18 1016.2 1016.2 -
07/12:30am 22.0 - - - - ESE 28 35 15 19 1016.1 1016.1 -
07/12:00am 22.4 - - - - ESE 32 37 17 20 1016.2 1016.2 -
 
Date/Time
WST
Temp
°C
App
Temp
°C
Dew
Point
°C
Rel
Hum
%
Delta-T
°C
Wind Press
QNH
hPa
Press
MSL
hPa
Rain since
9am
mm
Dir  Spd
km/h
Gust
km/h
Spd
kts
Gust
kts
06/11:30pm 22.6 - - - - ESE 28 33 15 18 1016.4 1016.4 -
06/11:00pm 22.6 - - - - ESE 26 30 14 16 1016.5 1016.5 -
06/10:30pm 22.6 - - - - ESE 24 28 13 15 1016.5 1016.5 -
06/10:00pm 22.7 - - - - ESE 22 26 12 14 1016.6 1016.6 -
06/09:30pm 23.0 - - - - ESE 20 28 11 15 1016.6 1016.6 -
06/09:00pm 23.6 - - - - E 17 22 9 12 1016.5 1016.5 -
06/08:30pm 23.5 - - - - ESE 17 20 9 11 1016.3 1016.3 -
06/08:00pm 23.5 - - - - ESE 13 17 7 9 1016.3 1016.3 -
06/07:30pm 23.6 - - - - SE 9 11 5 6 1016.0 1016.0 -
06/07:00pm 23.4 - - - - SSE 9 9 5 5 1015.9 1015.9 -
06/06:30pm 24.0 - - - - SSE 7 9 4 5 1015.7 1015.7 -
06/06:00pm 25.1 - - - - SSE 7 13 4 7 1015.3 1015.3 -
06/05:30pm 26.5 - - - - S 6 9 3 5 1014.9 1014.9 -
06/05:00pm 28.3 - - - - S 6 7 3 4 1014.6 1014.6 -
06/04:30pm 29.9 - - - - S 4 6 2 3 1014.3 1014.3 -
06/04:00pm 30.0 - - - - SSE 9 11 5 6 1014.1 1014.1 -
06/03:30pm 27.8 - - - - SSE 15 17 8 9 1013.9 1013.9 -
06/03:00pm 27.5 - - - - SSE 15 19 8 10 1013.8 1013.8 -
06/02:30pm 28.3 - - - - SE 15 17 8 9 1013.9 1013.9 -
06/02:00pm 27.8 - - - - ESE 15 17 8 9 1014.1 1014.1 -
06/01:30pm 27.7 - - - - ESE 19 20 10 11 1014.2 1014.2 -
06/01:00pm 27.3 - - - - E 19 22 10 12 1014.5 1014.5 -
06/12:30pm 26.6 - - - - E 20 24 11 13 1015.0 1015.0 -
06/12:00pm 26.1 - - - - E 20 24 11 13 1015.6 1015.6 -
06/11:30am 25.6 - - - - E 22 26 12 14 1016.0 1016.0 -
06/11:00am 25.0 - - - - E 24 28 13 15 1016.3 1016.3 -
06/10:30am 24.1 - - - - E 30 35 16 19 1016.7 1016.7 -
06/10:00am 23.4 - - - - E 28 33 15 18 1016.9 1016.9 -
06/09:30am 22.5 - - - - E 26 32 14 17 1017.1 1017.1 -
06/09:00am 20.6 - - - - E 24 30 13 16 1017.2 1017.2 -
06/08:30am 19.7 - - - - E 28 35 15 19 1017.2 1017.2 -
06/08:00am 19.2 - - - - E 30 37 16 20 1017.1 1017.1 -
06/07:30am 19.2 - - - - E 32 41 17 22 1016.8 1016.8 -
06/07:00am 19.3 - - - - E 32 43 17 23 1016.4 1016.4 -
06/06:30am 18.8 - - - - ENE 26 33 14 18 1016.2 1016.2 -
06/06:00am 18.8 - - - - ENE 22 30 12 16 1016.0 1016.0 -
06/05:30am 18.8 - - - - E 20 26 11 14 1015.8 1015.8 -
06/05:00am 18.8 - - - - E 20 24 11 13 1015.3 1015.3 -
06/04:30am 18.9 - - - - E 19 20 10 11 1015.3 1015.3 -
06/04:00am 19.7 - - - - E 19 20 10 11 1015.4 1015.4 -
06/03:30am 19.6 - - - - E 17 19 9 10 1015.3 1015.3 -
06/03:00am 19.9 - - - - E 19 22 10 12 1015.2 1015.2 -
06/02:30am 20.5 - - - - E 22 26 12 14 1015.4 1015.4 -
06/02:00am 20.8 - - - - E 22 26 12 14 1015.5 1015.5 -
06/01:30am 20.9 - - - - ESE 20 24 11 13 1015.5 1015.5 -
06/01:00am 21.2 - - - - ESE 20 26 11 14 1015.8 1015.8 -
06/12:30am 21.6 - - - - ESE 24 30 13 16 1016.0 1016.0 -
06/12:00am 22.1 - - - - ESE 30 33 16 18 1015.8 1015.8 -
 
Date/Time
WST
Temp
°C
App
Temp
°C
Dew
Point
°C
Rel
Hum
%
Delta-T
°C
Wind Press
QNH
hPa
Press
MSL
hPa
Rain since
9am
mm
Dir  Spd
km/h
Gust
km/h
Spd
kts
Gust
kts
05/11:30pm 22.3 - - - - ESE 28 35 15 19 1015.9 1015.9 -
05/11:00pm 22.5 - - - - ESE 28 32 15 17 1016.0 1016.0 -
05/10:30pm 22.8 - - - - ESE 26 32 14 17 1016.0 1016.0 -
05/10:00pm 22.9 - - - - ESE 22 28 12 15 1016.2 1016.2 -

Other formats

Comma delimited format used in spreadsheet applications
http://www.bom.gov.au/fwo/IDW60801/IDW60801.95202.axf

JavaScript Object Notation format (JSON) in row-major order
http://www.bom.gov.au/fwo/IDW60801/IDW60801.95202.json

Data quality

Most of these data are generated automatically and are frequently updated. Quality checks on data are not normally performed. It is possible for incorrect values to appear. Refer to information at About Latest Weather Observations and please check the disclaimer before using these data.